sensor_id;sensor_type;location;lat;lon;timestamp;pressure;altitude;pressure_sealevel;temperature
24201;BMP280;2801;50.972;7.856;2024-01-30T00:01:10;98769.91;;;3.28
24201;BMP280;2801;50.972;7.856;2024-01-30T00:03:37;98767.81;;;3.30
24201;BMP280;2801;50.972;7.856;2024-01-30T00:06:04;98771.97;;;3.26
24201;BMP280;2801;50.972;7.856;2024-01-30T00:08:31;98778.09;;;3.26
24201;BMP280;2801;50.972;7.856;2024-01-30T00:10:58;98771.91;;;3.21
24201;BMP280;2801;50.972;7.856;2024-01-30T00:13:25;98774.75;;;3.14
24201;BMP280;2801;50.972;7.856;2024-01-30T00:15:52;98772.09;;;3.14
24201;BMP280;2801;50.972;7.856;2024-01-30T00:18:20;98769.44;;;3.14
24201;BMP280;2801;50.972;7.856;2024-01-30T00:20:48;98775.00;;;3.13
24201;BMP280;2801;50.972;7.856;2024-01-30T00:23:15;98775.22;;;3.11
24201;BMP280;2801;50.972;7.856;2024-01-30T00:25:42;98774.94;;;3.08
24201;BMP280;2801;50.972;7.856;2024-01-30T00:28:09;98770.66;;;3.07
24201;BMP280;2801;50.972;7.856;2024-01-30T00:30:36;98770.09;;;3.05
24201;BMP280;2801;50.972;7.856;2024-01-30T00:33:04;98774.03;;;3.02
24201;BMP280;2801;50.972;7.856;2024-01-30T00:35:31;98772.94;;;2.98
24201;BMP280;2801;50.972;7.856;2024-01-30T00:37:58;98773.16;;;2.97
24201;BMP280;2801;50.972;7.856;2024-01-30T00:40:25;98768.66;;;2.97
24201;BMP280;2801;50.972;7.856;2024-01-30T00:42:53;98771.53;;;2.96
24201;BMP280;2801;50.972;7.856;2024-01-30T00:45:20;98767.53;;;2.93
24201;BMP280;2801;50.972;7.856;2024-01-30T00:47:47;98766.41;;;2.89
24201;BMP280;2801;50.972;7.856;2024-01-30T00:50:14;98767.94;;;2.85
24201;BMP280;2801;50.972;7.856;2024-01-30T00:52:41;98769.25;;;2.83
24201;BMP280;2801;50.972;7.856;2024-01-30T00:55:11;98769.94;;;2.78
24201;BMP280;2801;50.972;7.856;2024-01-30T00:57:39;98767.81;;;2.75
24201;BMP280;2801;50.972;7.856;2024-01-30T01:00:08;98764.28;;;2.70
24201;BMP280;2801;50.972;7.856;2024-01-30T01:02:36;98760.88;;;2.74
24201;BMP280;2801;50.972;7.856;2024-01-30T01:05:03;98767.47;;;2.72
24201;BMP280;2801;50.972;7.856;2024-01-30T01:07:31;98767.72;;;2.70
24201;BMP280;2801;50.972;7.856;2024-01-30T01:09:58;98756.56;;;2.68
24201;BMP280;2801;50.972;7.856;2024-01-30T01:12:26;98758.66;;;2.66
24201;BMP280;2801;50.972;7.856;2024-01-30T01:14:53;98762.09;;;2.67
24201;BMP280;2801;50.972;7.856;2024-01-30T01:17:20;98764.59;;;2.73
24201;BMP280;2801;50.972;7.856;2024-01-30T01:19:47;98759.06;;;2.75
24201;BMP280;2801;50.972;7.856;2024-01-30T01:22:14;98759.78;;;2.70
24201;BMP280;2801;50.972;7.856;2024-01-30T01:24:41;98756.22;;;2.65
24201;BMP280;2801;50.972;7.856;2024-01-30T01:27:08;98752.94;;;2.58
24201;BMP280;2801;50.972;7.856;2024-01-30T01:29:35;98758.16;;;2.53
24201;BMP280;2801;50.972;7.856;2024-01-30T01:32:02;98763.69;;;2.51
24201;BMP280;2801;50.972;7.856;2024-01-30T01:34:29;98763.38;;;2.48
24201;BMP280;2801;50.972;7.856;2024-01-30T01:36:57;98757.50;;;2.46
24201;BMP280;2801;50.972;7.856;2024-01-30T01:39:24;98764.00;;;2.38
24201;BMP280;2801;50.972;7.856;2024-01-30T01:41:51;98760.00;;;2.36
24201;BMP280;2801;50.972;7.856;2024-01-30T01:44:19;98762.06;;;2.34
24201;BMP280;2801;50.972;7.856;2024-01-30T01:46:46;98754.13;;;2.34
24201;BMP280;2801;50.972;7.856;2024-01-30T01:49:14;98763.28;;;2.43
24201;BMP280;2801;50.972;7.856;2024-01-30T01:51:43;98757.44;;;2.41
24201;BMP280;2801;50.972;7.856;2024-01-30T01:54:12;98757.75;;;2.44
24201;BMP280;2801;50.972;7.856;2024-01-30T01:56:42;98759.84;;;2.42
24201;BMP280;2801;50.972;7.856;2024-01-30T01:59:09;98761.38;;;2.38
24201;BMP280;2801;50.972;7.856;2024-01-30T02:01:39;98763.44;;;2.36
24201;BMP280;2801;50.972;7.856;2024-01-30T02:04:08;98758.84;;;2.32
24201;BMP280;2801;50.972;7.856;2024-01-30T02:06:35;98759.66;;;2.32
24201;BMP280;2801;50.972;7.856;2024-01-30T02:09:02;98751.72;;;2.32
24201;BMP280;2801;50.972;7.856;2024-01-30T02:11:32;98761.75;;;2.30
24201;BMP280;2801;50.972;7.856;2024-01-30T02:14:03;98766.47;;;2.28
24201;BMP280;2801;50.972;7.856;2024-01-30T02:16:32;98760.63;;;2.26
24201;BMP280;2801;50.972;7.856;2024-01-30T02:18:59;98755.34;;;2.26
24201;BMP280;2801;50.972;7.856;2024-01-30T02:21:26;98751.88;;;2.26
24201;BMP280;2801;50.972;7.856;2024-01-30T02:23:55;98759.25;;;2.24
24201;BMP280;2801;50.972;7.856;2024-01-30T02:26:23;98750.53;;;2.23
24201;BMP280;2801;50.972;7.856;2024-01-30T02:28:49;98752.34;;;2.23
24201;BMP280;2801;50.972;7.856;2024-01-30T02:31:17;98749.16;;;2.21
24201;BMP280;2801;50.972;7.856;2024-01-30T02:33:44;98746.75;;;2.19
24201;BMP280;2801;50.972;7.856;2024-01-30T02:36:11;98743.53;;;2.17
24201;BMP280;2801;50.972;7.856;2024-01-30T02:38:38;98747.75;;;2.18
24201;BMP280;2801;50.972;7.856;2024-01-30T02:41:05;98749.41;;;2.19
24201;BMP280;2801;50.972;7.856;2024-01-30T02:43:32;98744.34;;;2.18
24201;BMP280;2801;50.972;7.856;2024-01-30T02:45:59;98743.53;;;2.17
24201;BMP280;2801;50.972;7.856;2024-01-30T02:48:28;98749.41;;;2.19
24201;BMP280;2801;50.972;7.856;2024-01-30T02:50:55;98745.69;;;2.20
24201;BMP280;2801;50.972;7.856;2024-01-30T02:53:21;98740.66;;;2.19
24201;BMP280;2801;50.972;7.856;2024-01-30T02:55:48;98741.69;;;2.18
24201;BMP280;2801;50.972;7.856;2024-01-30T02:58:17;98735.59;;;2.17
24201;BMP280;2801;50.972;7.856;2024-01-30T03:00:44;98736.63;;;2.16
24201;BMP280;2801;50.972;7.856;2024-01-30T03:03:11;98724.47;;;2.15
24201;BMP280;2801;50.972;7.856;2024-01-30T03:05:38;98730.75;;;2.14
24201;BMP280;2801;50.972;7.856;2024-01-30T03:08:05;98722.28;;;2.12
24201;BMP280;2801;50.972;7.856;2024-01-30T03:10:32;98715.41;;;2.11
24201;BMP280;2801;50.972;7.856;2024-01-30T03:13:00;98726.53;;;2.13
24201;BMP280;2801;50.972;7.856;2024-01-30T03:15:27;98727.34;;;2.14
24201;BMP280;2801;50.972;7.856;2024-01-30T03:17:54;98723.06;;;2.13
24201;BMP280;2801;50.972;7.856;2024-01-30T03:20:21;98728.63;;;2.11
24201;BMP280;2801;50.972;7.856;2024-01-30T03:22:48;98720.69;;;2.11
24201;BMP280;2801;50.972;7.856;2024-01-30T03:25:15;98718.59;;;2.13
24201;BMP280;2801;50.972;7.856;2024-01-30T03:27:42;98713.06;;;2.15
24201;BMP280;2801;50.972;7.856;2024-01-30T03:30:10;98709.84;;;2.13
24201;BMP280;2801;50.972;7.856;2024-01-30T03:32:37;98714.34;;;2.12
24201;BMP280;2801;50.972;7.856;2024-01-30T03:35:04;98710.66;;;2.13
24201;BMP280;2801;50.972;7.856;2024-01-30T03:37:31;98701.91;;;2.13
24201;BMP280;2801;50.972;7.856;2024-01-30T03:39:59;98702.94;;;2.12
24201;BMP280;2801;50.972;7.856;2024-01-30T03:42:26;98710.88;;;2.12
24201;BMP280;2801;50.972;7.856;2024-01-30T03:44:53;98705.81;;;2.10
24201;BMP280;2801;50.972;7.856;2024-01-30T03:47:21;98709.53;;;2.09
24201;BMP280;2801;50.972;7.856;2024-01-30T03:49:48;98705.28;;;2.08
24201;BMP280;2801;50.972;7.856;2024-01-30T03:52:16;98708.94;;;2.07
24201;BMP280;2801;50.972;7.856;2024-01-30T03:54:43;98704.69;;;2.06
24201;BMP280;2801;50.972;7.856;2024-01-30T03:57:11;98703.34;;;2.04
24201;BMP280;2801;50.972;7.856;2024-01-30T03:59:42;98700.94;;;2.02
24201;BMP280;2801;50.972;7.856;2024-01-30T04:02:11;98699.88;;;2.03
24201;BMP280;2801;50.972;7.856;2024-01-30T04:04:38;98693.22;;;2.01
24201;BMP280;2801;50.972;7.856;2024-01-30T04:07:06;98705.16;;;2.03
24201;BMP280;2801;50.972;7.856;2024-01-30T04:09:33;98703.81;;;2.01
24201;BMP280;2801;50.972;7.856;2024-01-30T04:12:00;98708.63;;;2.04
24201;BMP280;2801;50.972;7.856;2024-01-30T04:14:29;98704.94;;;2.05
24201;BMP280;2801;50.972;7.856;2024-01-30T04:16:56;98701.16;;;2.01
24201;BMP280;2801;50.972;7.856;2024-01-30T04:19:23;98697.16;;;1.98
24201;BMP280;2801;50.972;7.856;2024-01-30T04:21:51;98696.25;;;1.93
24201;BMP280;2801;50.972;7.856;2024-01-30T04:24:18;98702.03;;;1.90
24201;BMP280;2801;50.972;7.856;2024-01-30T04:26:45;98692.97;;;1.86
24201;BMP280;2801;50.972;7.856;2024-01-30T04:29:12;98700.34;;;1.84
24201;BMP280;2801;50.972;7.856;2024-01-30T04:31:39;98695.84;;;1.84
24201;BMP280;2801;50.972;7.856;2024-01-30T04:34:06;98693.69;;;1.81
24201;BMP280;2801;50.972;7.856;2024-01-30T04:36:33;98694.47;;;1.82
24201;BMP280;2801;50.972;7.856;2024-01-30T04:39:00;98698.41;;;1.79
24201;BMP280;2801;50.972;7.856;2024-01-30T04:41:27;98691.28;;;1.80
24201;BMP280;2801;50.972;7.856;2024-01-30T04:43:58;98696.56;;;1.80
24201;BMP280;2801;50.972;7.856;2024-01-30T04:46:25;98691.84;;;1.82
24201;BMP280;2801;50.972;7.856;2024-01-30T04:48:52;98699.75;;;1.82
24201;BMP280;2801;50.972;7.856;2024-01-30T04:51:19;98698.16;;;1.81
24201;BMP280;2801;50.972;7.856;2024-01-30T04:53:46;98694.94;;;1.79
24201;BMP280;2801;50.972;7.856;2024-01-30T04:56:13;98695.22;;;1.77
24201;BMP280;2801;50.972;7.856;2024-01-30T04:58:40;98694.63;;;1.75
24201;BMP280;2801;50.972;7.856;2024-01-30T05:01:07;98682.47;;;1.74
24201;BMP280;2801;50.972;7.856;2024-01-30T05:03:34;98691.66;;;1.72
24201;BMP280;2801;50.972;7.856;2024-01-30T05:06:02;98694.53;;;1.70
24201;BMP280;2801;50.972;7.856;2024-01-30T05:08:29;98691.31;;;1.68
24201;BMP280;2801;50.972;7.856;2024-01-30T05:10:56;98695.56;;;1.69
24201;BMP280;2801;50.972;7.856;2024-01-30T05:13:23;98691.31;;;1.68
24201;BMP280;2801;50.972;7.856;2024-01-30T05:15:50;98697.06;;;1.65
24201;BMP280;2801;50.972;7.856;2024-01-30T05:18:17;98696.28;;;1.65
24201;BMP280;2801;50.972;7.856;2024-01-30T05:20:44;98690.78;;;1.66
24201;BMP280;2801;50.972;7.856;2024-01-30T05:23:11;98694.19;;;1.67
24201;BMP280;2801;50.972;7.856;2024-01-30T05:25:38;98699.25;;;1.68
24201;BMP280;2801;50.972;7.856;2024-01-30T05:28:05;98691.78;;;1.65
24201;BMP280;2801;50.972;7.856;2024-01-30T05:30:32;98696.06;;;1.66
24201;BMP280;2801;50.972;7.856;2024-01-30T05:33:00;98698.69;;;1.66
24201;BMP280;2801;50.972;7.856;2024-01-30T05:35:27;98692.28;;;1.62
24201;BMP280;2801;50.972;7.856;2024-01-30T05:37:54;98688.25;;;1.60
24201;BMP280;2801;50.972;7.856;2024-01-30T05:40:21;98686.66;;;1.59
24201;BMP280;2801;50.972;7.856;2024-01-30T05:42:49;98689.53;;;1.57
24201;BMP280;2801;50.972;7.856;2024-01-30T05:45:16;98678.94;;;1.57
24201;BMP280;2801;50.972;7.856;2024-01-30T05:47:43;98684.47;;;1.56
24201;BMP280;2801;50.972;7.856;2024-01-30T05:50:10;98685.28;;;1.56
24201;BMP280;2801;50.972;7.856;2024-01-30T05:52:37;98681.59;;;1.57
24201;BMP280;2801;50.972;7.856;2024-01-30T05:55:04;98674.72;;;1.56
24201;BMP280;2801;50.972;7.856;2024-01-30T05:57:32;98680.00;;;1.56
24201;BMP280;2801;50.972;7.856;2024-01-30T05:59:59;98678.16;;;1.57
24201;BMP280;2801;50.972;7.856;2024-01-30T06:02:26;98678.63;;;1.54
24201;BMP280;2801;50.972;7.856;2024-01-30T06:04:53;98675.63;;;1.50
24201;BMP280;2801;50.972;7.856;2024-01-30T06:07:20;98682.56;;;1.51
24201;BMP280;2801;50.972;7.856;2024-01-30T06:09:48;98682.78;;;1.50
24201;BMP280;2801;50.972;7.856;2024-01-30T06:12:15;98686.44;;;1.49
24201;BMP280;2801;50.972;7.856;2024-01-30T06:14:42;98681.16;;;1.49
24201;BMP280;2801;50.972;7.856;2024-01-30T06:17:13;98688.84;;;1.50
24201;BMP280;2801;50.972;7.856;2024-01-30T06:19:40;98681.50;;;1.52
24201;BMP280;2801;50.972;7.856;2024-01-30T06:22:08;98681.28;;;1.54
24201;BMP280;2801;50.972;7.856;2024-01-30T06:24:35;98685.19;;;1.51
24201;BMP280;2801;50.972;7.856;2024-01-30T06:27:02;98685.44;;;1.50
24201;BMP280;2801;50.972;7.856;2024-01-30T06:29:29;98683.25;;;1.47
24201;BMP280;2801;50.972;7.856;2024-01-30T06:31:57;98690.59;;;1.45
24201;BMP280;2801;50.972;7.856;2024-01-30T06:34:24;98694.63;;;1.47
24201;BMP280;2801;50.972;7.856;2024-01-30T06:36:53;98690.94;;;1.48
24201;BMP280;2801;50.972;7.856;2024-01-30T06:39:20;98687.25;;;1.49
24201;BMP280;2801;50.972;7.856;2024-01-30T06:41:47;98691.19;;;1.47
24201;BMP280;2801;50.972;7.856;2024-01-30T06:44:14;98687.72;;;1.46
24201;BMP280;2801;50.972;7.856;2024-01-30T06:46:41;98690.81;;;1.43
24201;BMP280;2801;50.972;7.856;2024-01-30T06:49:08;98688.44;;;1.42
24201;BMP280;2801;50.972;7.856;2024-01-30T06:51:35;98683.41;;;1.40
24201;BMP280;2801;50.972;7.856;2024-01-30T06:54:03;98686.50;;;1.37
24201;BMP280;2801;50.972;7.856;2024-01-30T06:56:30;98693.38;;;1.38
24201;BMP280;2801;50.972;7.856;2024-01-30T06:58:57;98693.38;;;1.38
24201;BMP280;2801;50.972;7.856;2024-01-30T07:01:28;98694.41;;;1.37
24201;BMP280;2801;50.972;7.856;2024-01-30T07:03:57;98688.31;;;1.37
24201;BMP280;2801;50.972;7.856;2024-01-30T07:06:24;98693.97;;;1.40
24201;BMP280;2801;50.972;7.856;2024-01-30T07:08:52;98686.13;;;1.45
24201;BMP280;2801;50.972;7.856;2024-01-30T07:11:22;98692.09;;;1.52
24201;BMP280;2801;50.972;7.856;2024-01-30T07:13:51;98688.16;;;1.55
24201;BMP280;2801;50.972;7.856;2024-01-30T07:16:18;98693.22;;;1.56
24201;BMP280;2801;50.972;7.856;2024-01-30T07:18:45;98688.25;;;1.60
24201;BMP280;2801;50.972;7.856;2024-01-30T07:21:12;98690.09;;;1.59
24201;BMP280;2801;50.972;7.856;2024-01-30T07:23:39;98686.09;;;1.57
24201;BMP280;2801;50.972;7.856;2024-01-30T07:26:08;98694.44;;;1.65
24201;BMP280;2801;50.972;7.856;2024-01-30T07:28:36;98699.03;;;1.70
24201;BMP280;2801;50.972;7.856;2024-01-30T07:31:03;98708.31;;;1.72
24201;BMP280;2801;50.972;7.856;2024-01-30T07:33:30;98702.25;;;1.72
24201;BMP280;2801;50.972;7.856;2024-01-30T07:35:58;98704.16;;;1.76
24201;BMP280;2801;50.972;7.856;2024-01-30T07:38:25;98697.47;;;1.85
24201;BMP280;2801;50.972;7.856;2024-01-30T07:40:52;98690.66;;;1.89
24201;BMP280;2801;50.972;7.856;2024-01-30T07:43:19;98703.50;;;1.97
24201;BMP280;2801;50.972;7.856;2024-01-30T07:45:47;98694.34;;;2.05
24201;BMP280;2801;50.972;7.856;2024-01-30T07:48:14;98696.88;;;2.11
24201;BMP280;2801;50.972;7.856;2024-01-30T07:50:41;98700.94;;;2.19
24201;BMP280;2801;50.972;7.856;2024-01-30T07:53:09;98701.03;;;2.24
24201;BMP280;2801;50.972;7.856;2024-01-30T07:55:36;98700.09;;;2.30
24201;BMP280;2801;50.972;7.856;2024-01-30T07:58:03;98704.66;;;2.34
24201;BMP280;2801;50.972;7.856;2024-01-30T08:00:31;98707.16;;;2.41
24201;BMP280;2801;50.972;7.856;2024-01-30T08:02:58;98712.03;;;2.49
24201;BMP280;2801;50.972;7.856;2024-01-30T08:05:25;98715.88;;;2.58
24201;BMP280;2801;50.972;7.856;2024-01-30T08:07:53;98711.69;;;2.62
24201;BMP280;2801;50.972;7.856;2024-01-30T08:10:20;98704.41;;;2.69
24201;BMP280;2801;50.972;7.856;2024-01-30T08:12:48;98703.97;;;2.77
24201;BMP280;2801;50.972;7.856;2024-01-30T08:15:15;98700.53;;;2.93
24201;BMP280;2801;50.972;7.856;2024-01-30T08:17:42;98704.25;;;3.13
24201;BMP280;2801;50.972;7.856;2024-01-30T08:20:10;98716.06;;;3.27
24201;BMP280;2801;50.972;7.856;2024-01-30T08:22:40;98715.72;;;3.40
24201;BMP280;2801;50.972;7.856;2024-01-30T08:25:07;98717.13;;;3.48
24201;BMP280;2801;50.972;7.856;2024-01-30T08:27:36;98712.94;;;3.52
24201;BMP280;2801;50.972;7.856;2024-01-30T08:30:09;98716.78;;;3.61
24201;BMP280;2801;50.972;7.856;2024-01-30T08:32:36;98709.19;;;3.69
24201;BMP280;2801;50.972;7.856;2024-01-30T08:35:03;98718.91;;;3.85
24201;BMP280;2801;50.972;7.856;2024-01-30T08:37:31;98709.78;;;4.03
24201;BMP280;2801;50.972;7.856;2024-01-30T08:39:58;98722.47;;;4.23
24201;BMP280;2801;50.972;7.856;2024-01-30T08:42:26;98714.66;;;4.43
24201;BMP280;2801;50.972;7.856;2024-01-30T08:44:53;98711.88;;;4.59
24201;BMP280;2801;50.972;7.856;2024-01-30T08:47:21;98706.91;;;4.68
24201;BMP280;2801;50.972;7.856;2024-01-30T08:49:48;98705.34;;;4.72
24201;BMP280;2801;50.972;7.856;2024-01-30T08:52:15;98714.19;;;4.87
24201;BMP280;2801;50.972;7.856;2024-01-30T08:54:42;98709.50;;;4.99
24201;BMP280;2801;50.972;7.856;2024-01-30T08:57:09;98697.34;;;5.08
24201;BMP280;2801;50.972;7.856;2024-01-30T08:59:36;98708.81;;;5.24
24201;BMP280;2801;50.972;7.856;2024-01-30T09:02:03;98695.09;;;5.37
24201;BMP280;2801;50.972;7.856;2024-01-30T09:04:39;98697.75;;;5.42
24201;BMP280;2801;50.972;7.856;2024-01-30T09:07:07;98699.91;;;5.50
24201;BMP280;2801;50.972;7.856;2024-01-30T09:09:41;98704.72;;;5.53
24201;BMP280;2801;50.972;7.856;2024-01-30T09:12:08;98709.78;;;5.59
24201;BMP280;2801;50.972;7.856;2024-01-30T09:14:39;98707.94;;;5.65
24201;BMP280;2801;50.972;7.856;2024-01-30T09:17:07;98697.09;;;5.71
24201;BMP280;2801;50.972;7.856;2024-01-30T09:19:35;98702.66;;;5.80
24201;BMP280;2801;50.972;7.856;2024-01-30T09:22:02;98698.19;;;5.85
24201;BMP280;2801;50.972;7.856;2024-01-30T09:24:30;98698.50;;;5.94
24201;BMP280;2801;50.972;7.856;2024-01-30T09:26:57;98690.50;;;5.99
24201;BMP280;2801;50.972;7.856;2024-01-30T09:29:25;98684.13;;;6.05
24201;BMP280;2801;50.972;7.856;2024-01-30T09:31:52;98687.84;;;6.14
24201;BMP280;2801;50.972;7.856;2024-01-30T09:34:19;98693.22;;;6.19
24201;BMP280;2801;50.972;7.856;2024-01-30T09:36:46;98695.09;;;6.28
24201;BMP280;2801;50.972;7.856;2024-01-30T09:39:13;98704.94;;;6.33
24201;BMP280;2801;50.972;7.856;2024-01-30T09:41:55;98712.66;;;6.44
24201;BMP280;2801;50.972;7.856;2024-01-30T09:44:29;98715.59;;;6.53
24201;BMP280;2801;50.972;7.856;2024-01-30T09:46:57;98720.66;;;6.64
24201;BMP280;2801;50.972;7.856;2024-01-30T09:49:32;98719.59;;;6.75
24201;BMP280;2801;50.972;7.856;2024-01-30T09:52:02;98726.78;;;6.85
24201;BMP280;2801;50.972;7.856;2024-01-30T09:54:30;98723.28;;;6.94
24201;BMP280;2801;50.972;7.856;2024-01-30T09:57:03;98721.16;;;7.01
24201;BMP280;2801;50.972;7.856;2024-01-30T09:59:31;98722.47;;;7.14
24201;BMP280;2801;50.972;7.856;2024-01-30T10:01:58;98720.31;;;7.26
24201;BMP280;2801;50.972;7.856;2024-01-30T10:04:25;98718.13;;;7.43
24201;BMP280;2801;50.972;7.856;2024-01-30T10:06:52;98720.19;;;7.56
24201;BMP280;2801;50.972;7.856;2024-01-30T10:09:19;98724.44;;;7.67
24201;BMP280;2801;50.972;7.856;2024-01-30T10:11:48;98723.34;;;7.73
24201;BMP280;2801;50.972;7.856;2024-01-30T10:14:16;98715.53;;;7.82
24201;BMP280;2801;50.972;7.856;2024-01-30T10:16:46;98719.53;;;7.89
24201;BMP280;2801;50.972;7.856;2024-01-30T10:19:13;98717.34;;;7.96
24201;BMP280;2801;50.972;7.856;2024-01-30T10:21:40;98719.72;;;8.03
24201;BMP280;2801;50.972;7.856;2024-01-30T10:24:07;98721.00;;;8.10
24201;BMP280;2801;50.972;7.856;2024-01-30T10:26:34;98723.59;;;8.20
24201;BMP280;2801;50.972;7.856;2024-01-30T10:29:05;98714.81;;;8.25
24201;BMP280;2801;50.972;7.856;2024-01-30T10:31:32;98715.53;;;8.35
24201;BMP280;2801;50.972;7.856;2024-01-30T10:33:59;98726.44;;;8.44
24201;BMP280;2801;50.972;7.856;2024-01-30T10:36:46;98720.44;;;8.57
24201;BMP280;2801;50.972;7.856;2024-01-30T10:39:17;98714.97;;;8.72
24201;BMP280;2801;50.972;7.856;2024-01-30T10:41:44;98718.94;;;8.79
24201;BMP280;2801;50.972;7.856;2024-01-30T10:44:19;98714.28;;;8.90
24201;BMP280;2801;50.972;7.856;2024-01-30T10:47:00;98713.09;;;9.01
24201;BMP280;2801;50.972;7.856;2024-01-30T10:49:30;98710.34;;;9.11
24201;BMP280;2801;50.972;7.856;2024-01-30T10:51:59;98708.34;;;9.21
24201;BMP280;2801;50.972;7.856;2024-01-30T10:54:28;98699.63;;;9.34
24201;BMP280;2801;50.972;7.856;2024-01-30T10:56:59;98698.69;;;9.49
24201;BMP280;2801;50.972;7.856;2024-01-30T10:59:28;98697.19;;;9.61
24201;BMP280;2801;50.972;7.856;2024-01-30T11:01:59;98703.50;;;9.70
24201;BMP280;2801;50.972;7.856;2024-01-30T11:04:27;98703.38;;;9.80
24201;BMP280;2801;50.972;7.856;2024-01-30T11:06:54;98712.56;;;9.93
24201;BMP280;2801;50.972;7.856;2024-01-30T11:09:21;98709.47;;;10.04
24201;BMP280;2801;50.972;7.856;2024-01-30T11:11:56;98706.38;;;10.16
24201;BMP280;2801;50.972;7.856;2024-01-30T11:14:29;98703.91;;;10.19
24201;BMP280;2801;50.972;7.856;2024-01-30T11:17:00;98705.44;;;10.25
24201;BMP280;2801;50.972;7.856;2024-01-30T11:19:30;98700.50;;;10.32
24201;BMP280;2801;50.972;7.856;2024-01-30T11:21:58;98703.91;;;10.38
24201;BMP280;2801;50.972;7.856;2024-01-30T11:24:28;98711.66;;;10.39
24201;BMP280;2801;50.972;7.856;2024-01-30T11:26:59;98694.19;;;10.42
24201;BMP280;2801;50.972;7.856;2024-01-30T11:29:28;98676.41;;;10.46
24201;BMP280;2801;50.972;7.856;2024-01-30T11:32:00;98689.19;;;10.54
24201;BMP280;2801;50.972;7.856;2024-01-30T11:34:27;98683.16;;;10.62
24201;BMP280;2801;50.972;7.856;2024-01-30T11:37:03;98686.75;;;10.71
24201;BMP280;2801;50.972;7.856;2024-01-30T11:39:30;98693.09;;;10.75
24201;BMP280;2801;50.972;7.856;2024-01-30T11:41:59;98681.28;;;10.76
24201;BMP280;2801;50.972;7.856;2024-01-30T11:44:26;98684.69;;;10.81
24201;BMP280;2801;50.972;7.856;2024-01-30T11:46:54;98674.16;;;10.85
24201;BMP280;2801;50.972;7.856;2024-01-30T11:49:21;98673.28;;;10.89
24201;BMP280;2801;50.972;7.856;2024-01-30T11:51:48;98669.09;;;10.83
24201;BMP280;2801;50.972;7.856;2024-01-30T11:54:16;98669.97;;;10.79
24201;BMP280;2801;50.972;7.856;2024-01-30T11:56:44;98672.34;;;10.80
24201;BMP280;2801;50.972;7.856;2024-01-30T11:59:11;98667.22;;;10.84
24201;BMP280;2801;50.972;7.856;2024-01-30T12:01:38;98669.50;;;10.90
24201;BMP280;2801;50.972;7.856;2024-01-30T12:04:05;98662.75;;;10.93
24201;BMP280;2801;50.972;7.856;2024-01-30T12:06:38;98667.72;;;10.99
24201;BMP280;2801;50.972;7.856;2024-01-30T12:09:06;98665.16;;;11.08
24201;BMP280;2801;50.972;7.856;2024-01-30T12:11:48;98662.06;;;11.14
24201;BMP280;2801;50.972;7.856;2024-01-30T12:14:19;98652.53;;;11.22
24201;BMP280;2801;50.972;7.856;2024-01-30T12:16:49;98664.75;;;11.28
24201;BMP280;2801;50.972;7.856;2024-01-30T12:19:22;98656.28;;;11.34
24201;BMP280;2801;50.972;7.856;2024-01-30T12:21:57;98659.19;;;11.38
24201;BMP280;2801;50.972;7.856;2024-01-30T12:24:27;98652.72;;;11.39
24201;BMP280;2801;50.972;7.856;2024-01-30T12:26:59;98662.06;;;11.42
24201;BMP280;2801;50.972;7.856;2024-01-30T12:29:26;98651.84;;;11.44
24201;BMP280;2801;50.972;7.856;2024-01-30T12:32:00;98645.88;;;11.47
24201;BMP280;2801;50.972;7.856;2024-01-30T12:34:27;98657.50;;;11.42
24201;BMP280;2801;50.972;7.856;2024-01-30T12:36:56;98654.81;;;11.42
24201;BMP280;2801;50.972;7.856;2024-01-30T12:39:25;98653.84;;;11.38
24201;BMP280;2801;50.972;7.856;2024-01-30T12:41:52;98656.91;;;11.32
24201;BMP280;2801;50.972;7.856;2024-01-30T12:44:20;98645.66;;;11.29
24201;BMP280;2801;50.972;7.856;2024-01-30T12:46:47;98655.00;;;11.32
24201;BMP280;2801;50.972;7.856;2024-01-30T12:49:14;98651.25;;;11.33
24201;BMP280;2801;50.972;7.856;2024-01-30T12:51:43;98659.50;;;11.37
24201;BMP280;2801;50.972;7.856;2024-01-30T12:54:12;98650.84;;;11.40
24201;BMP280;2801;50.972;7.856;2024-01-30T12:56:39;98641.88;;;11.44
24201;BMP280;2801;50.972;7.856;2024-01-30T12:59:06;98652.72;;;11.53
24201;BMP280;2801;50.972;7.856;2024-01-30T13:01:33;98649.34;;;11.61
24201;BMP280;2801;50.972;7.856;2024-01-30T13:04:00;98655.63;;;11.70
24201;BMP280;2801;50.972;7.856;2024-01-30T13:06:27;98652.72;;;11.66
24201;BMP280;2801;50.972;7.856;2024-01-30T13:08:54;98658.41;;;11.65
24201;BMP280;2801;50.972;7.856;2024-01-30T13:11:21;98657.50;;;11.69
24201;BMP280;2801;50.972;7.856;2024-01-30T13:13:48;98650.94;;;11.75
24201;BMP280;2801;50.972;7.856;2024-01-30T13:16:15;98654.41;;;11.76
24201;BMP280;2801;50.972;7.856;2024-01-30T13:18:44;98653.81;;;11.79
24201;BMP280;2801;50.972;7.856;2024-01-30T13:21:11;98657.47;;;11.83
24201;BMP280;2801;50.972;7.856;2024-01-30T13:23:38;98655.00;;;11.86
24201;BMP280;2801;50.972;7.856;2024-01-30T13:26:06;98645.22;;;11.90
24201;BMP280;2801;50.972;7.856;2024-01-30T13:28:34;98657.94;;;11.98
24201;BMP280;2801;50.972;7.856;2024-01-30T13:31:01;98653.84;;;12.01
24201;BMP280;2801;50.972;7.856;2024-01-30T13:33:28;98652.28;;;12.00
24201;BMP280;2801;50.972;7.856;2024-01-30T13:35:55;98648.47;;;12.01
24201;BMP280;2801;50.972;7.856;2024-01-30T13:38:22;98653.63;;;12.11
24201;BMP280;2801;50.972;7.856;2024-01-30T13:40:49;98651.44;;;12.13
24201;BMP280;2801;50.972;7.856;2024-01-30T13:43:17;98654.63;;;12.15
24201;BMP280;2801;50.972;7.856;2024-01-30T13:45:44;98654.00;;;12.18
24201;BMP280;2801;50.972;7.856;2024-01-30T13:48:12;98655.00;;;12.22
24201;BMP280;2801;50.972;7.856;2024-01-30T13:50:40;98650.69;;;12.21
24201;BMP280;2801;50.972;7.856;2024-01-30T13:53:07;98654.88;;;12.27
24201;BMP280;2801;50.972;7.856;2024-01-30T13:55:35;98658.66;;;12.26
24201;BMP280;2801;50.972;7.856;2024-01-30T13:58:02;98655.97;;;12.26
24201;BMP280;2801;50.972;7.856;2024-01-30T14:00:29;98661.94;;;12.23
24201;BMP280;2801;50.972;7.856;2024-01-30T14:02:56;98665.06;;;12.16
24201;BMP280;2801;50.972;7.856;2024-01-30T14:05:28;98656.63;;;12.09
24201;BMP280;2801;50.972;7.856;2024-01-30T14:07:57;98666.69;;;12.04
24201;BMP280;2801;50.972;7.856;2024-01-30T14:10:25;98660.03;;;12.01
24201;BMP280;2801;50.972;7.856;2024-01-30T14:12:53;98662.03;;;11.96
24201;BMP280;2801;50.972;7.856;2024-01-30T14:15:19;98666.44;;;11.92
24201;BMP280;2801;50.972;7.856;2024-01-30T14:17:55;98677.47;;;11.90
24201;BMP280;2801;50.972;7.856;2024-01-30T14:20:25;98676.19;;;11.88
24201;BMP280;2801;50.972;7.856;2024-01-30T14:22:52;98679.47;;;11.85
24201;BMP280;2801;50.972;7.856;2024-01-30T14:25:20;98685.16;;;11.83
24201;BMP280;2801;50.972;7.856;2024-01-30T14:27:47;98680.06;;;11.82
24201;BMP280;2801;50.972;7.856;2024-01-30T14:30:15;98691.53;;;11.74
24201;BMP280;2801;50.972;7.856;2024-01-30T14:32:42;98690.94;;;11.77
24201;BMP280;2801;50.972;7.856;2024-01-30T14:35:11;98692.00;;;11.76